Time;durP1;ratioP1;P1;durP2;ratioP2;P2;SDS_P1;SDS_P2;PMS_P1;PMS_P2;Temp;Humidity;BMP_temperature;BMP_pressure;BME280_temperature;BME280_humidity;BME280_pressure;Samples;Min_cycle;Max_cycle;Signal;HPM_P1;HPM_P2
2023/07/16 00:01:38;;;;;;;;;;;17.10;99.90;;;;;;5114027;28;20296;-67
2023/07/16 00:04:05;;;;;;;;;;;17.10;99.90;;;;;;5113933;28;19914;-65
2023/07/16 00:06:31;;;;;;;;;;;17.20;99.90;;;;;;5114034;28;19916;-65
2023/07/16 00:08:59;;;;;;;;;;;17.30;99.90;;;;;;5114039;28;19908;-67
2023/07/16 00:11:26;;;;;;;;;;;17.40;99.90;;;;;;5113975;28;19953;-65
2023/07/16 00:13:52;;;;;;;;;;;17.40;99.90;;;;;;5114200;28;19912;-66
2023/07/16 00:16:19;;;;;;;;;;;17.50;99.90;;;;;;5114004;28;19943;-65
2023/07/16 00:18:46;;;;;;;;;;;17.60;99.90;;;;;;5114020;28;20020;-64
2023/07/16 00:21:12;;;;;;;;;;;17.80;99.90;;;;;;5113753;28;19908;-65
2023/07/16 00:23:39;;;;;;;;;;;17.90;99.90;;;;;;5113698;28;20352;-65
2023/07/16 00:26:06;;;;;;;;;;;18.00;99.90;;;;;;5113820;28;19947;-65
2023/07/16 00:28:32;;;;;;;;;;;18.10;99.90;;;;;;5113895;28;19914;-66
2023/07/16 00:30:59;;;;;;;;;;;18.30;99.90;;;;;;5113806;28;19907;-65
2023/07/16 00:33:26;;;;;;;;;;;18.40;99.90;;;;;;5113580;28;19915;-66
2023/07/16 00:35:52;;;;;;;;;;;18.50;99.90;;;;;;5113562;28;20003;-65
2023/07/16 00:38:20;;;;;;;;;;;18.40;99.90;;;;;;5113553;28;19915;-64
2023/07/16 00:40:46;;;;;;;;;;;18.40;99.90;;;;;;5113622;28;19998;-66
2023/07/16 00:43:13;;;;;;;;;;;18.30;99.90;;;;;;5113367;28;19965;-65
2023/07/16 00:45:41;;;;;;;;;;;18.10;99.90;;;;;;5113343;28;19915;-66
2023/07/16 00:48:11;;;;;;;;;;;18.10;99.90;;;;;;5112630;28;21310;-64
2023/07/16 00:50:39;;;;;;;;;;;18.10;99.90;;;;;;5113330;28;19999;-64
2023/07/16 00:53:07;;;;;;;;;;;18.00;99.90;;;;;;5113220;28;19939;-62
2023/07/16 00:55:34;;;;;;;;;;;18.00;99.90;;;;;;5113016;28;19947;-63
2023/07/16 00:58:05;;;;;;;;;;;18.00;99.90;;;;;;5113111;28;19908;-65
2023/07/16 01:00:33;;;;;;;;;;;18.00;99.90;;;;;;5112827;28;19915;-65
2023/07/16 01:03:00;;;;;;;;;;;18.00;99.90;;;;;;5113024;28;20273;-67
2023/07/16 01:05:30;;;;;;;;;;;18.00;99.90;;;;;;5112961;28;19916;-67
2023/07/16 01:07:59;;;;;;;;;;;18.00;99.90;;;;;;5113118;28;19998;-65
2023/07/16 01:10:26;;;;;;;;;;;18.10;99.90;;;;;;5112876;28;19915;-66
2023/07/16 01:12:56;;;;;;;;;;;18.20;99.90;;;;;;5113173;28;19915;-66
2023/07/16 01:15:23;;;;;;;;;;;18.20;99.90;;;;;;5113278;28;19908;-66
2023/07/16 01:17:50;;;;;;;;;;;18.30;99.90;;;;;;5113280;28;20352;-68
2023/07/16 01:20:16;;;;;;;;;;;18.50;99.90;;;;;;5112852;28;19919;-64
2023/07/16 01:22:57;;;;;;;;;;;18.60;99.90;;;;;;5113245;28;19908;-65
2023/07/16 01:25:27;;;;;;;;;;;18.70;99.90;;;;;;5113113;28;19915;-64
2023/07/16 01:27:53;;;;;;;;;;;18.80;99.90;;;;;;5113181;28;19908;-66
2023/07/16 01:30:20;;;;;;;;;;;18.90;99.90;;;;;;5116396;28;20000;-66
2023/07/16 01:32:48;;;;;;;;;;;19.00;99.90;;;;;;5117184;28;19908;-63
2023/07/16 01:35:15;;;;;;;;;;;19.10;99.90;;;;;;5116927;28;19912;-63
2023/07/16 01:37:42;;;;;;;;;;;19.10;99.90;;;;;;5117137;28;20360;-65
2023/07/16 01:40:09;;;;;;;;;;;19.10;99.90;;;;;;5116968;28;19907;-66
2023/07/16 01:42:36;;;;;;;;;;;19.10;99.90;;;;;;5116923;28;19915;-65
2023/07/16 01:45:02;;;;;;;;;;;19.20;99.90;;;;;;5117234;28;19969;-64
2023/07/16 01:47:29;;;;;;;;;;;19.30;99.90;;;;;;5116875;28;20029;-63
2023/07/16 01:49:56;;;;;;;;;;;19.20;99.90;;;;;;5116791;28;19954;-65
2023/07/16 01:52:23;;;;;;;;;;;19.20;99.90;;;;;;5116743;28;20325;-63
2023/07/16 01:54:49;;;;;;;;;;;19.10;99.90;;;;;;5116592;28;20433;-63
2023/07/16 01:57:16;;;;;;;;;;;19.10;99.90;;;;;;5117264;28;20516;-63
2023/07/16 01:59:43;;;;;;;;;;;19.00;99.90;;;;;;5116273;28;20245;-66
2023/07/16 02:02:09;;;;;;;;;;;19.00;99.90;;;;;;5116699;28;19915;-64
2023/07/16 02:04:36;;;;;;;;;;;18.90;99.90;;;;;;5116477;28;19911;-64
2023/07/16 02:07:03;;;;;;;;;;;18.90;99.90;;;;;;5116356;28;20334;-66
2023/07/16 02:09:29;;;;;;;;;;;18.90;99.90;;;;;;5116111;28;19943;-64
2023/07/16 02:11:56;;;;;;;;;;;18.80;99.90;;;;;;5116647;28;20344;-63
2023/07/16 02:14:23;;;;;;;;;;;18.90;99.90;;;;;;5116313;28;20324;-65
2023/07/16 02:16:49;;;;;;;;;;;19.00;99.90;;;;;;5116223;28;19908;-66
2023/07/16 02:19:16;;;;;;;;;;;19.00;99.90;;;;;;5116130;28;20284;-64
2023/07/16 02:21:43;;;;;;;;;;;19.00;99.90;;;;;;5116466;28;19907;-64
2023/07/16 02:24:09;;;;;;;;;;;18.90;99.90;;;;;;5116443;28;19915;-64
2023/07/16 02:26:36;;;;;;;;;;;18.80;99.90;;;;;;5115989;28;19969;-64
2023/07/16 02:29:03;;;;;;;;;;;18.80;99.90;;;;;;5116059;28;19908;-63
2023/07/16 02:31:29;;;;;;;;;;;18.80;99.90;;;;;;5115400;28;19908;-64
2023/07/16 02:33:56;;;;;;;;;;;18.70;99.90;;;;;;5116079;28;19907;-64
2023/07/16 02:36:23;;;;;;;;;;;18.60;99.90;;;;;;5115794;28;19915;-64
2023/07/16 02:38:49;;;;;;;;;;;18.60;99.90;;;;;;5115604;28;19918;-63
2023/07/16 02:41:16;;;;;;;;;;;18.60;99.90;;;;;;5114444;28;19908;-67
2023/07/16 02:43:42;;;;;;;;;;;18.70;99.90;;;;;;5115482;28;19972;-67
2023/07/16 02:46:09;;;;;;;;;;;18.70;99.90;;;;;;5115513;28;20334;-64
2023/07/16 02:48:36;;;;;;;;;;;18.80;99.90;;;;;;5115635;28;20325;-67
2023/07/16 02:51:02;;;;;;;;;;;18.80;99.90;;;;;;5115691;28;20011;-67
2023/07/16 02:53:29;;;;;;;;;;;19.00;99.90;;;;;;5115796;28;19907;-67
2023/07/16 02:55:56;;;;;;;;;;;19.10;99.90;;;;;;5115354;28;19961;-64
2023/07/16 02:58:23;;;;;;;;;;;19.20;99.90;;;;;;5115385;28;19915;-64
2023/07/16 03:00:49;;;;;;;;;;;19.30;99.90;;;;;;5115458;28;19912;-63
2023/07/16 03:03:16;;;;;;;;;;;19.30;99.90;;;;;;5115328;28;19961;-65
2023/07/16 03:05:43;;;;;;;;;;;19.40;99.90;;;;;;5115261;28;20325;-64
2023/07/16 03:08:09;;;;;;;;;;;19.30;99.90;;;;;;5115810;28;20029;-64
2023/07/16 03:10:36;;;;;;;;;;;19.20;99.90;;;;;;5115190;28;19960;-62
2023/07/16 03:13:03;;;;;;;;;;;19.10;99.90;;;;;;5115347;28;20496;-64
2023/07/16 03:15:29;;;;;;;;;;;19.00;99.90;;;;;;5115479;28;20008;-64
2023/07/16 03:17:56;;;;;;;;;;;18.90;99.90;;;;;;5115328;28;20377;-63
2023/07/16 03:20:22;;;;;;;;;;;18.70;99.90;;;;;;5114988;28;20010;-63
2023/07/16 03:22:49;;;;;;;;;;;18.60;99.90;;;;;;5115267;28;19908;-64
2023/07/16 03:25:16;;;;;;;;;;;18.50;99.90;;;;;;5115019;28;19916;-66
2023/07/16 03:27:42;;;;;;;;;;;18.40;99.90;;;;;;5115100;28;19907;-66
2023/07/16 03:30:09;;;;;;;;;;;18.40;99.90;;;;;;5114739;28;20363;-64
2023/07/16 03:32:36;;;;;;;;;;;18.30;99.90;;;;;;5114964;28;19908;-66
2023/07/16 03:35:02;;;;;;;;;;;18.30;99.90;;;;;;5115063;28;20379;-66
2023/07/16 03:37:29;;;;;;;;;;;18.20;99.90;;;;;;5114881;28;19908;-66
2023/07/16 03:39:56;;;;;;;;;;;18.30;99.90;;;;;;5114685;28;20360;-66
2023/07/16 03:42:22;;;;;;;;;;;18.20;99.90;;;;;;5114435;28;20002;-65
2023/07/16 03:44:49;;;;;;;;;;;18.10;99.90;;;;;;5114511;28;19912;-64
2023/07/16 03:47:16;;;;;;;;;;;18.10;99.90;;;;;;5114717;28;19912;-65
2023/07/16 03:49:42;;;;;;;;;;;18.00;99.90;;;;;;5114462;28;19950;-66
2023/07/16 03:52:09;;;;;;;;;;;17.90;99.90;;;;;;5114218;28;19950;-65
2023/07/16 03:54:35;;;;;;;;;;;17.90;99.90;;;;;;5114504;28;19978;-64
2023/07/16 03:57:02;;;;;;;;;;;17.80;99.90;;;;;;5114681;28;19943;-64
2023/07/16 03:59:29;;;;;;;;;;;17.80;99.90;;;;;;5114404;28;19907;-65
2023/07/16 04:01:56;;;;;;;;;;;17.70;99.90;;;;;;5114183;28;19956;-64
2023/07/16 04:04:22;;;;;;;;;;;17.60;99.90;;;;;;5114093;28;20031;-64
2023/07/16 04:06:49;;;;;;;;;;;17.60;99.90;;;;;;5114211;28;19931;-64
2023/07/16 04:09:15;;;;;;;;;;;17.60;99.90;;;;;;5095931;28;20277;-64
2023/07/16 04:11:42;;;;;;;;;;;17.60;99.90;;;;;;5114275;28;20044;-64
2023/07/16 04:14:09;;;;;;;;;;;17.40;99.90;;;;;;5114199;28;19961;-64
2023/07/16 04:16:35;;;;;;;;;;;17.40;99.90;;;;;;5114112;28;19914;-63
2023/07/16 04:19:02;;;;;;;;;;;17.30;99.90;;;;;;5113943;28;19980;-64
2023/07/16 04:21:28;;;;;;;;;;;17.30;99.90;;;;;;5113927;28;19911;-64
2023/07/16 04:23:55;;;;;;;;;;;17.30;99.90;;;;;;5113977;28;20253;-65
2023/07/16 04:26:22;;;;;;;;;;;17.30;99.90;;;;;;5113986;28;19915;-64
2023/07/16 04:28:48;;;;;;;;;;;17.30;99.90;;;;;;5113999;28;19907;-64
2023/07/16 04:31:15;;;;;;;;;;;17.30;99.90;;;;;;5114227;28;19915;-64
2023/07/16 04:33:42;;;;;;;;;;;17.40;99.90;;;;;;5114526;28;20271;-64
2023/07/16 04:36:08;;;;;;;;;;;17.50;99.90;;;;;;5115227;28;19994;-64
2023/07/16 04:38:35;;;;;;;;;;;17.60;99.90;;;;;;5115399;28;19931;-64
2023/07/16 04:41:02;;;;;;;;;;;17.70;99.90;;;;;;5114212;28;19953;-63
2023/07/16 04:43:29;;;;;;;;;;;17.90;99.90;;;;;;5113484;28;20448;-63
2023/07/16 04:45:56;;;;;;;;;;;17.90;99.90;;;;;;5113506;28;19972;-64
2023/07/16 04:48:22;;;;;;;;;;;18.00;99.90;;;;;;5113670;28;20313;-64
2023/07/16 04:50:51;;;;;;;;;;;18.10;99.90;;;;;;5113404;28;20280;-63
2023/07/16 04:53:18;;;;;;;;;;;18.00;99.90;;;;;;5113581;28;19915;-64
2023/07/16 04:55:45;;;;;;;;;;;18.10;99.90;;;;;;5113530;28;20375;-64
2023/07/16 04:58:12;;;;;;;;;;;18.00;99.90;;;;;;5113516;28;19994;-63
2023/07/16 05:00:38;;;;;;;;;;;18.00;99.90;;;;;;5095260;28;20492;-65
2023/07/16 05:03:05;;;;;;;;;;;18.10;99.90;;;;;;5113085;28;19912;-65
2023/07/16 05:05:32;;;;;;;;;;;18.10;99.90;;;;;;5113158;28;19916;-64
2023/07/16 05:07:59;;;;;;;;;;;18.10;99.90;;;;;;5094764;28;19919;-65
2023/07/16 05:10:26;;;;;;;;;;;18.10;99.90;;;;;;5113137;28;19958;-64
2023/07/16 05:12:52;;;;;;;;;;;17.90;99.90;;;;;;5094975;28;19907;-63
2023/07/16 05:15:19;;;;;;;;;;;17.80;99.90;;;;;;5095061;28;20002;-67
2023/07/16 05:17:49;;;;;;;;;;;17.70;99.90;;;;;;5113224;28;19912;-64
2023/07/16 05:20:16;;;;;;;;;;;17.70;99.90;;;;;;5094525;28;19908;-65
2023/07/16 05:22:42;;;;;;;;;;;17.70;99.90;;;;;;5113140;28;19939;-67
2023/07/16 05:25:12;;;;;;;;;;;17.60;99.90;;;;;;5113273;28;19995;-66
2023/07/16 05:27:39;;;;;;;;;;;17.60;99.90;;;;;;5095550;28;19912;-63
2023/07/16 05:30:06;;;;;;;;;;;17.60;99.90;;;;;;5112889;28;19912;-65
2023/07/16 05:32:33;;;;;;;;;;;17.40;99.90;;;;;;5094801;28;19912;-64
2023/07/16 05:34:59;;;;;;;;;;;17.30;99.90;;;;;;5094827;28;20276;-66
2023/07/16 05:37:26;;;;;;;;;;;17.20;99.90;;;;;;5113023;28;20356;-65
2023/07/16 05:39:53;;;;;;;;;;;17.10;99.90;;;;;;5112848;28;19908;-64
2023/07/16 05:42:20;;;;;;;;;;;17.00;99.90;;;;;;5112724;28;19916;-64
2023/07/16 05:44:49;;;;;;;;;;;16.90;99.90;;;;;;5112770;28;19923;-66
2023/07/16 05:47:16;;;;;;;;;;;16.90;99.90;;;;;;5094889;28;19949;-63
2023/07/16 05:49:43;;;;;;;;;;;16.70;99.90;;;;;;5094788;28;19908;-66
2023/07/16 05:52:10;;;;;;;;;;;16.60;99.90;;;;;;5113098;28;19908;-67
2023/07/16 05:54:36;;;;;;;;;;;16.60;99.90;;;;;;5112985;28;19908;-63
2023/07/16 05:57:03;;;;;;;;;;;16.60;99.90;;;;;;5094748;28;20386;-64
2023/07/16 05:59:34;;;;;;;;;;;16.50;99.90;;;;;;5094420;28;19908;-63
2023/07/16 06:02:00;;;;;;;;;;;16.40;99.90;;;;;;5112796;28;19961;-65
2023/07/16 06:04:27;;;;;;;;;;;16.40;99.90;;;;;;5094374;28;19927;-64
2023/07/16 06:06:54;;;;;;;;;;;16.30;99.90;;;;;;5077512;28;19912;-64
2023/07/16 06:09:20;;;;;;;;;;;16.30;99.90;;;;;;5112744;28;20359;-65
2023/07/16 06:11:47;;;;;;;;;;;16.30;99.90;;;;;;5112742;28;19908;-64
2023/07/16 06:14:14;;;;;;;;;;;16.30;99.90;;;;;;5112437;28;20006;-65
2023/07/16 06:16:41;;;;;;;;;;;16.20;99.90;;;;;;5116645;28;19908;-64
2023/07/16 06:19:07;;;;;;;;;;;16.20;99.90;;;;;;5116351;28;19908;-65
2023/07/16 06:21:34;;;;;;;;;;;16.20;99.90;;;;;;5116325;28;19994;-63
2023/07/16 06:24:01;;;;;;;;;;;16.20;99.90;;;;;;5116318;28;19907;-64
2023/07/16 06:26:28;;;;;;;;;;;16.20;99.90;;;;;;5115939;28;19916;-63
2023/07/16 06:28:54;;;;;;;;;;;16.20;99.90;;;;;;5116442;28;19919;-63
2023/07/16 06:31:21;;;;;;;;;;;16.20;99.90;;;;;;5116045;28;20391;-63
2023/07/16 06:33:49;;;;;;;;;;;16.00;99.90;;;;;;5097608;28;19915;-64
2023/07/16 06:36:15;;;;;;;;;;;16.10;99.90;;;;;;5115965;28;19912;-65
2023/07/16 06:38:42;;;;;;;;;;;16.10;99.90;;;;;;5097841;28;19960;-64
2023/07/16 06:41:08;;;;;;;;;;;16.10;99.90;;;;;;5116048;28;20441;-64
2023/07/16 06:43:35;;;;;;;;;;;16.00;99.90;;;;;;5115671;28;19972;-64
2023/07/16 06:46:03;;;;;;;;;;;16.00;99.90;;;;;;5097334;28;19915;-66
2023/07/16 06:48:30;;;;;;;;;;;16.00;99.90;;;;;;5097565;28;19912;-63
2023/07/16 06:50:56;;;;;;;;;;;16.00;99.90;;;;;;5115979;28;19908;-64
2023/07/16 06:53:23;;;;;;;;;;;15.90;99.90;;;;;;5115697;28;19911;-64
2023/07/16 06:55:50;;;;;;;;;;;15.80;99.90;;;;;;5115837;28;20014;-64
2023/07/16 06:58:16;;;;;;;;;;;15.80;99.90;;;;;;5115700;28;19908;-63
2023/07/16 07:00:43;;;;;;;;;;;15.70;99.90;;;;;;5115731;28;19908;-63
2023/07/16 07:03:10;;;;;;;;;;;15.60;99.90;;;;;;5115764;28;19908;-64
2023/07/16 07:05:36;;;;;;;;;;;15.50;99.90;;;;;;5115678;28;19916;-63
2023/07/16 07:08:03;;;;;;;;;;;15.50;99.90;;;;;;5115398;28;19995;-65
2023/07/16 07:10:30;;;;;;;;;;;15.50;99.90;;;;;;5115436;28;19994;-65
2023/07/16 07:12:56;;;;;;;;;;;15.50;99.90;;;;;;5115408;28;19946;-64
2023/07/16 07:15:23;;;;;;;;;;;15.30;99.90;;;;;;5115591;28;19953;-64
2023/07/16 07:17:51;;;;;;;;;;;15.30;99.90;;;;;;5115251;28;19907;-65
2023/07/16 07:20:18;;;;;;;;;;;15.40;99.90;;;;;;5115085;28;19961;-64
2023/07/16 07:22:45;;;;;;;;;;;15.40;99.90;;;;;;5115215;28;20301;-67
2023/07/16 07:25:11;;;;;;;;;;;15.40;99.90;;;;;;5114992;28;19912;-64
2023/07/16 07:27:38;;;;;;;;;;;15.30;99.90;;;;;;5114314;28;19913;-64
2023/07/16 07:30:05;;;;;;;;;;;15.40;99.90;;;;;;5114968;28;20276;-64
2023/07/16 07:32:32;;;;;;;;;;;15.30;99.90;;;;;;5114980;28;20342;-63
2023/07/16 07:34:58;;;;;;;;;;;15.30;99.90;;;;;;5114868;28;20283;-64
2023/07/16 07:37:25;;;;;;;;;;;15.20;99.90;;;;;;5114898;28;19908;-65
2023/07/16 07:39:52;;;;;;;;;;;15.20;99.90;;;;;;5095964;28;19919;-64
2023/07/16 07:42:19;;;;;;;;;;;15.20;99.90;;;;;;5108420;28;19920;-65
2023/07/16 07:44:45;;;;;;;;;;;15.20;99.90;;;;;;5095611;28;19924;-67
2023/07/16 07:47:12;;;;;;;;;;;15.20;99.90;;;;;;5114167;28;20276;-64
2023/07/16 07:49:39;;;;;;;;;;;15.20;99.90;;;;;;5114028;28;19911;-64
2023/07/16 07:52:06;;;;;;;;;;;15.20;99.90;;;;;;5113782;28;19904;-65
2023/07/16 07:54:33;;;;;;;;;;;15.20;99.90;;;;;;5114475;28;19914;-65
2023/07/16 07:57:05;;;;;;;;;;;15.20;99.90;;;;;;5092129;28;19930;-64
2023/07/16 07:59:32;;;;;;;;;;;15.20;99.90;;;;;;5113113;28;20660;-63
2023/07/16 08:01:59;;;;;;;;;;;15.20;99.90;;;;;;5113163;28;20002;-63
2023/07/16 08:04:26;;;;;;;;;;;15.30;99.90;;;;;;5075175;28;20015;-65
2023/07/16 08:06:53;;;;;;;;;;;15.30;99.90;;;;;;5093607;28;20361;-65
2023/07/16 08:09:20;;;;;;;;;;;15.30;99.90;;;;;;5094570;28;19962;-62
2023/07/16 08:11:47;;;;;;;;;;;15.30;99.90;;;;;;5101606;28;19973;-63
2023/07/16 08:14:13;;;;;;;;;;;15.30;99.90;;;;;;5093281;28;19919;-63
2023/07/16 08:16:40;;;;;;;;;;;15.30;99.90;;;;;;5093523;28;19908;-62
2023/07/16 08:19:06;;;;;;;;;;;15.30;99.90;;;;;;5093624;28;19965;-64
2023/07/16 08:21:33;;;;;;;;;;;15.30;99.90;;;;;;5092910;28;20364;-62
2023/07/16 08:24:00;;;;;;;;;;;15.20;99.90;;;;;;5105179;28;19916;-62
2023/07/16 08:26:26;;;;;;;;;;;15.20;99.90;;;;;;5112553;28;20026;-63
2023/07/16 08:28:53;;;;;;;;;;;15.20;99.90;;;;;;5098241;28;19914;-67
2023/07/16 08:31:21;;;;;;;;;;;15.20;99.90;;;;;;5093761;28;20418;-67
2023/07/16 08:33:47;;;;;;;;;;;15.10;99.90;;;;;;5092473;28;19908;-66
2023/07/16 08:36:14;;;;;;;;;;;15.10;99.90;;;;;;5092758;28;19918;-64
2023/07/16 08:38:41;;;;;;;;;;;15.10;99.90;;;;;;5091862;28;19912;-65
2023/07/16 08:41:07;;;;;;;;;;;15.10;99.90;;;;;;5092772;28;20349;-64
2023/07/16 08:43:34;;;;;;;;;;;15.00;99.90;;;;;;5092671;28;20456;-65
2023/07/16 08:46:02;;;;;;;;;;;15.00;99.90;;;;;;5099124;28;19919;-65
2023/07/16 08:48:29;;;;;;;;;;;15.10;99.90;;;;;;5112771;28;19911;-65
2023/07/16 08:50:57;;;;;;;;;;;15.10;99.90;;;;;;5095011;28;20018;-66
2023/07/16 08:53:24;;;;;;;;;;;15.10;99.90;;;;;;5113655;28;19931;-67
2023/07/16 08:55:51;;;;;;;;;;;15.10;99.90;;;;;;5114242;28;19908;-66
2023/07/16 08:58:18;;;;;;;;;;;15.10;99.90;;;;;;5113249;28;19995;-67
2023/07/16 09:00:45;;;;;;;;;;;15.10;99.90;;;;;;5108410;28;19919;-64
2023/07/16 09:03:18;;;;;;;;;;;15.20;99.90;;;;;;5105380;28;20347;-64
2023/07/16 09:05:45;;;;;;;;;;;15.10;99.90;;;;;;5102787;28;20439;-62
2023/07/16 09:08:13;;;;;;;;;;;15.20;99.90;;;;;;5095741;28;19975;-65
2023/07/16 09:10:43;;;;;;;;;;;15.20;99.90;;;;;;5105129;28;19915;-61
2023/07/16 09:13:10;;;;;;;;;;;15.20;99.90;;;;;;5091584;28;19911;-64
2023/07/16 09:15:38;;;;;;;;;;;15.20;99.90;;;;;;5105947;28;20279;-63
2023/07/16 09:18:05;;;;;;;;;;;15.10;99.90;;;;;;5092287;28;19907;-63
2023/07/16 09:20:32;;;;;;;;;;;15.10;99.90;;;;;;5089830;28;19912;-65
2023/07/16 09:22:59;;;;;;;;;;;15.10;99.90;;;;;;5110061;28;19912;-65
2023/07/16 09:25:29;;;;;;;;;;;15.20;99.90;;;;;;5104355;28;20422;-64
2023/07/16 09:27:56;;;;;;;;;;;15.20;99.90;;;;;;5105942;28;19912;-63
2023/07/16 09:30:22;;;;;;;;;;;15.20;99.90;;;;;;5101376;28;19953;-62
2023/07/16 09:32:49;;;;;;;;;;;15.20;99.90;;;;;;5096895;28;19915;-63
2023/07/16 09:35:17;;;;;;;;;;;15.20;99.90;;;;;;5092433;28;19963;-63
2023/07/16 09:37:44;;;;;;;;;;;15.20;99.90;;;;;;5106504;28;19916;-63
2023/07/16 09:40:11;;;;;;;;;;;15.20;99.90;;;;;;5105862;28;19912;-65
2023/07/16 09:42:42;;;;;;;;;;;15.20;99.90;;;;;;5106824;28;20322;-66
2023/07/16 09:45:18;;;;;;;;;;;15.30;99.90;;;;;;5105110;28;19931;-63
2023/07/16 09:47:45;;;;;;;;;;;15.30;99.90;;;;;;5108699;28;19915;-62
2023/07/16 09:50:12;;;;;;;;;;;15.30;99.90;;;;;;5110109;28;19958;-64
2023/07/16 09:52:42;;;;;;;;;;;15.30;99.90;;;;;;5087237;28;19908;-65
2023/07/16 09:55:10;;;;;;;;;;;15.30;99.90;;;;;;5114915;28;20349;-64
2023/07/16 09:57:38;;;;;;;;;;;15.30;99.90;;;;;;5097395;28;19908;-64
2023/07/16 10:00:13;;;;;;;;;;;15.20;99.90;;;;;;5097393;28;19953;-63
2023/07/16 10:02:41;;;;;;;;;;;15.20;99.90;;;;;;5115803;28;19915;-63
2023/07/16 10:05:13;;;;;;;;;;;15.20;99.90;;;;;;5114168;28;20317;-66
2023/07/16 10:07:40;;;;;;;;;;;15.20;99.90;;;;;;5112918;28;19951;-64
2023/07/16 10:10:08;;;;;;;;;;;15.20;99.90;;;;;;5111065;28;19959;-65
2023/07/16 10:12:38;;;;;;;;;;;15.10;99.90;;;;;;5115202;28;19955;-66
2023/07/16 10:15:06;;;;;;;;;;;15.10;99.90;;;;;;5112749;28;19914;-66
2023/07/16 10:17:33;;;;;;;;;;;15.10;99.90;;;;;;5114145;28;19976;-64
2023/07/16 10:20:01;;;;;;;;;;;15.10;99.90;;;;;;5114183;28;19907;-67
2023/07/16 10:22:38;;;;;;;;;;;15.10;99.90;;;;;;5114270;28;19961;-63
2023/07/16 10:25:22;;;;;;;;;;;15.10;99.90;;;;;;5112919;28;19916;-63
2023/07/16 10:27:49;;;;;;;;;;;15.10;99.90;;;;;;5111375;28;19918;-65
2023/07/16 10:30:16;;;;;;;;;;;15.10;99.90;;;;;;5111758;28;19932;-64
2023/07/16 10:32:43;;;;;;;;;;;15.00;99.90;;;;;;5113789;28;19923;-64
2023/07/16 10:35:10;;;;;;;;;;;15.00;99.90;;;;;;5110103;28;20630;-63
2023/07/16 10:37:38;;;;;;;;;;;15.10;99.90;;;;;;5113664;28;19908;-65
2023/07/16 10:40:06;;;;;;;;;;;15.00;99.90;;;;;;5094347;28;19915;-66
2023/07/16 10:42:32;;;;;;;;;;;15.00;99.90;;;;;;5095128;28;19963;-66
2023/07/16 10:45:02;;;;;;;;;;;15.10;99.90;;;;;;5094136;28;19912;-67
2023/07/16 10:47:33;;;;;;;;;;;15.00;99.90;;;;;;5110599;28;19956;-65
2023/07/16 10:50:00;;;;;;;;;;;15.00;99.90;;;;;;5113804;28;19915;-67
2023/07/16 10:52:27;;;;;;;;;;;15.00;99.90;;;;;;5113668;28;19915;-66
2023/07/16 10:54:58;;;;;;;;;;;15.10;99.90;;;;;;5113339;28;20277;-64
2023/07/16 10:57:25;;;;;;;;;;;15.00;99.90;;;;;;5112626;28;19912;-66
2023/07/16 10:59:52;;;;;;;;;;;15.00;99.90;;;;;;5112596;28;19912;-65
2023/07/16 11:02:19;;;;;;;;;;;15.00;99.90;;;;;;5111631;28;19926;-65
2023/07/16 11:04:49;;;;;;;;;;;15.00;99.90;;;;;;5111922;28;19914;-65
2023/07/16 11:07:16;;;;;;;;;;;15.00;99.90;;;;;;5080174;28;19920;-65
2023/07/16 11:09:53;;;;;;;;;;;15.00;99.90;;;;;;5109733;28;19916;-64
2023/07/16 11:12:23;;;;;;;;;;;15.00;99.90;;;;;;5095197;28;19912;-63
2023/07/16 11:14:51;;;;;;;;;;;15.00;99.90;;;;;;5111279;28;20281;-65
2023/07/16 11:17:18;;;;;;;;;;;14.90;99.90;;;;;;5113268;28;19931;-68
2023/07/16 11:19:48;;;;;;;;;;;14.90;99.90;;;;;;5114374;28;19915;-63
2023/07/16 11:22:15;;;;;;;;;;;14.90;99.90;;;;;;5114354;28;20318;-66
2023/07/16 11:24:46;;;;;;;;;;;15.00;99.90;;;;;;5114217;28;19907;-64
2023/07/16 11:27:17;;;;;;;;;;;14.90;99.90;;;;;;5111923;28;19915;-66
2023/07/16 11:29:47;;;;;;;;;;;15.00;99.90;;;;;;5113015;28;19955;-64
2023/07/16 11:32:14;;;;;;;;;;;15.00;99.90;;;;;;5110709;28;20370;-65
2023/07/16 11:34:54;;;;;;;;;;;15.00;99.90;;;;;;5112699;28;19969;-65
2023/07/16 11:37:21;;;;;;;;;;;14.90;99.90;;;;;;5111118;28;20375;-65
2023/07/16 11:39:48;;;;;;;;;;;14.90;99.90;;;;;;5112496;28;19978;-63
2023/07/16 11:42:15;;;;;;;;;;;14.80;99.90;;;;;;5107019;28;19955;-65
2023/07/16 11:44:41;;;;;;;;;;;14.80;99.90;;;;;;5105294;28;19931;-66
2023/07/16 11:47:08;;;;;;;;;;;14.80;99.90;;;;;;5107688;27;19923;-66
2023/07/16 11:49:35;;;;;;;;;;;14.70;99.90;;;;;;5110928;27;19994;-66
2023/07/16 11:52:02;;;;;;;;;;;14.70;99.90;;;;;;5108322;28;20390;-66
2023/07/16 11:54:28;;;;;;;;;;;14.70;99.90;;;;;;5105851;28;20284;-66
2023/07/16 11:56:55;;;;;;;;;;;14.70;99.90;;;;;;5114109;28;19911;-65
2023/07/16 11:59:21;;;;;;;;;;;14.60;99.90;;;;;;5111850;28;19912;-65
2023/07/16 12:01:49;;;;;;;;;;;14.70;99.90;;;;;;5112713;28;19908;-65
2023/07/16 12:04:16;;;;;;;;;;;14.70;99.90;;;;;;5113650;28;19912;-65
2023/07/16 12:06:43;;;;;;;;;;;14.70;99.90;;;;;;5113262;28;20000;-65
2023/07/16 12:09:10;;;;;;;;;;;14.70;99.90;;;;;;5114068;28;19969;-65
2023/07/16 12:11:37;;;;;;;;;;;14.60;99.90;;;;;;5102823;28;19916;-67
2023/07/16 12:14:05;;;;;;;;;;;14.70;99.90;;;;;;5093394;28;19909;-66
2023/07/16 12:16:32;;;;;;;;;;;14.60;99.90;;;;;;5093421;28;19908;-66
2023/07/16 12:18:58;;;;;;;;;;;14.60;99.90;;;;;;5104775;28;19965;-64
2023/07/16 12:21:25;;;;;;;;;;;14.50;99.90;;;;;;5113514;28;19908;-65
2023/07/16 12:23:51;;;;;;;;;;;14.50;99.90;;;;;;5113543;28;19915;-66
2023/07/16 12:26:18;;;;;;;;;;;14.50;99.90;;;;;;5113639;28;20326;-65
2023/07/16 12:28:45;;;;;;;;;;;14.50;99.90;;;;;;5113538;28;19912;-65
2023/07/16 12:31:11;;;;;;;;;;;14.50;99.90;;;;;;5104128;28;19912;-65
2023/07/16 12:33:38;;;;;;;;;;;14.40;99.90;;;;;;5093404;28;20381;-65
2023/07/16 12:36:04;;;;;;;;;;;14.40;99.90;;;;;;5093506;28;19999;-65
2023/07/16 12:38:31;;;;;;;;;;;14.40;99.90;;;;;;5101719;28;19919;-66
2023/07/16 12:40:58;;;;;;;;;;;14.40;99.90;;;;;;5108703;28;19912;-64
2023/07/16 12:43:24;;;;;;;;;;;14.40;99.90;;;;;;5092925;28;20343;-64
2023/07/16 12:45:51;;;;;;;;;;;14.40;99.90;;;;;;5092953;28;20386;-65
2023/07/16 12:48:18;;;;;;;;;;;14.40;99.90;;;;;;5093371;28;19970;-65
2023/07/16 12:50:44;;;;;;;;;;;14.40;99.90;;;;;;5100265;28;19912;-64
2023/07/16 12:53:11;;;;;;;;;;;14.40;99.90;;;;;;5112082;28;19912;-66
2023/07/16 12:55:38;;;;;;;;;;;14.40;99.90;;;;;;5110978;28;19922;-65
2023/07/16 12:58:04;;;;;;;;;;;14.30;99.90;;;;;;5106197;28;19912;-66
2023/07/16 13:00:31;;;;;;;;;;;14.30;99.90;;;;;;5093000;28;20516;-65
2023/07/16 13:02:58;;;;;;;;;;;14.40;99.90;;;;;;5092929;28;19908;-64
2023/07/16 13:05:24;;;;;;;;;;;14.40;99.90;;;;;;5108842;28;19922;-64
2023/07/16 13:07:51;;;;;;;;;;;14.40;99.90;;;;;;5113316;28;19908;-64
2023/07/16 13:10:18;;;;;;;;;;;14.40;99.90;;;;;;5112092;28;20016;-65
2023/07/16 13:12:45;;;;;;;;;;;14.50;99.90;;;;;;5112747;28;19916;-65
2023/07/16 13:15:12;;;;;;;;;;;14.40;99.90;;;;;;5113065;28;19907;-67
2023/07/16 13:17:39;;;;;;;;;;;14.40;99.90;;;;;;5111520;28;19919;-64
2023/07/16 13:20:06;;;;;;;;;;;14.30;99.90;;;;;;5111057;28;19916;-65
2023/07/16 13:22:33;;;;;;;;;;;14.40;99.90;;;;;;5098734;28;19912;-65
2023/07/16 13:24:59;;;;;;;;;;;14.40;99.90;;;;;;5094116;28;19927;-66
2023/07/16 13:27:26;;;;;;;;;;;14.30;99.90;;;;;;5101740;28;19916;-65
2023/07/16 13:29:53;;;;;;;;;;;14.30;99.90;;;;;;5116631;28;19908;-65
2023/07/16 13:32:19;;;;;;;;;;;14.30;99.90;;;;;;5116932;28;19908;-64
2023/07/16 13:34:46;;;;;;;;;;;14.30;99.90;;;;;;5108372;28;19919;-64
2023/07/16 13:37:13;;;;;;;;;;;14.20;99.90;;;;;;5107585;28;20315;-64
2023/07/16 13:39:40;;;;;;;;;;;14.30;99.90;;;;;;5096376;28;19908;-66
2023/07/16 13:42:07;;;;;;;;;;;14.20;99.90;;;;;;5096256;28;19924;-66
2023/07/16 13:44:34;;;;;;;;;;;14.10;99.90;;;;;;5096244;28;20019;-66
2023/07/16 13:47:00;;;;;;;;;;;14.20;99.90;;;;;;5096168;28;20277;-65
2023/07/16 13:49:27;;;;;;;;;;;14.10;99.90;;;;;;5115903;28;19908;-65
2023/07/16 13:51:54;;;;;;;;;;;14.20;99.90;;;;;;5109459;28;19926;-65
2023/07/16 13:54:20;;;;;;;;;;;14.00;99.90;;;;;;5095765;28;19908;-66
2023/07/16 13:56:47;;;;;;;;;;;14.10;99.90;;;;;;5096263;28;19912;-66
2023/07/16 13:59:14;;;;;;;;;;;14.10;99.90;;;;;;5096265;28;19908;-66
2023/07/16 14:01:41;;;;;;;;;;;14.00;99.90;;;;;;5097045;28;19919;-65
2023/07/16 14:04:08;;;;;;;;;;;14.10;99.90;;;;;;5096374;28;19956;-65
2023/07/16 14:06:34;;;;;;;;;;;14.00;99.90;;;;;;5096041;28;20364;-67
2023/07/16 14:09:02;;;;;;;;;;;14.00;99.90;;;;;;5096285;28;19908;-64
2023/07/16 14:11:28;;;;;;;;;;;14.00;99.90;;;;;;5095999;28;20692;-64
2023/07/16 14:13:55;;;;;;;;;;;14.00;99.90;;;;;;5095909;28;19908;-64
2023/07/16 14:16:22;;;;;;;;;;;14.00;99.90;;;;;;5095955;28;19908;-65